^^
Grace C. Lehan Memorial Weather Station Historical Data
Daily Summary for October 12, 2021 Units:  Metric    English   Both
Daily Weekly Monthly Yearly
  High: Low: Average:
Temperature: 23.1 °C 12.2 °C 16.1 °C
Dew Point: 17.1 °C 11.4 °C 13.9 °C
Humidity: 97% 67% 88%
Wind Speed: 0.8km/h 0km/h 0km/h
Wind Gust: 9.7km/h - -
Wind- - SSW
Pressure: 1020.9 hPa 1016.5 hPa -
Precipitation: 0 mm    
 
 
Tabular Data for October 12, 2021
Time Temperature Dew Point Pressure Wind Wind Speed Wind Gust Humidity Rainfall Rate (Hourly) solar
00:09 14.5 °C 13.4 °C 1018.5 hPa Calm     93% 0 mm 0 W/m2
00:14 14.5 °C 13.3 °C 1018.5 hPa Calm     93% 0 mm 0 W/m2
00:19 14.4 °C 13.3 °C 1018.5 hPa Calm     93% 0 mm 0 W/m2
00:24 14.3 °C 13.2 °C 1018.5 hPa Calm     93% 0 mm 0 W/m2
00:29 14.2 °C 13.1 °C 1018.5 hPa Calm     93% 0 mm 0 W/m2
00:34 14.2 °C 13.1 °C 1018.5 hPa Calm     93% 0 mm 0 W/m2
00:39 14.1 °C 12.9 °C 1018.5 hPa Calm     93% 0 mm 0 W/m2
00:44 14 °C 12.9 °C 1018.5 hPa Calm     93% 0 mm 0 W/m2
00:49 14 °C 12.9 °C 1018.5 hPa Calm     93.3% 0 mm 0 W/m2
00:54 14 °C 13.1 °C 1018.5 hPa Calm     94% 0 mm 0 W/m2
00:59 14 °C 13.1 °C 1018.5 hPa Calm     94% 0 mm 0 W/m2
01:04 13.9 °C 13 °C 1018.5 hPa Calm     94% 0 mm 0 W/m2
01:09 13.9 °C 12.9 °C 1018.8 hPa Calm     94% 0 mm 0 W/m2
01:14 13.9 °C 12.9 °C 1018.8 hPa Calm     94% 0 mm 0 W/m2
01:19 13.8 °C 12.9 °C 1018.8 hPa Calm     94% 0 mm 0 W/m2
01:24 13.7 °C 12.8 °C 1018.8 hPa Calm     94% 0 mm 0 W/m2
01:29 13.6 °C 12.5 °C 1018.8 hPa Calm     93.2% 0 mm 0 W/m2
01:34 13.4 °C 12.4 °C 1018.8 hPa Calm     93.3% 0 mm 0 W/m2
01:39 13.4 °C 12.4 °C 1018.8 hPa Calm     94% 0 mm 0 W/m2
01:44 13.4 °C 12.4 °C 1018.5 hPa Calm     94% 0 mm 0 W/m2
01:49 13.4 °C 12.4 °C 1018.5 hPa Calm     94% 0 mm 0 W/m2
01:54 13.3 °C 12.4 °C 1018.5 hPa Calm     94% 0 mm 0 W/m2
01:59 13.3 °C 12.4 °C 1018.8 hPa Calm     94% 0 mm 0 W/m2
02:03 13.3 °C 12.3 °C 1018.8 hPa Calm     94% 0 mm 0 W/m2
02:09 13.3 °C 12.3 °C 1018.8 hPa Calm     94% 0 mm 0 W/m2
02:14 13.2 °C 12.3 °C 1018.8 hPa Calm     94% 0 mm 0 W/m2
02:19 13.2 °C 12.2 °C 1018.8 hPa Calm     94% 0 mm 0 W/m2
02:24 13.1 °C 12.2 °C 1018.8 hPa Calm     94% 0 mm 0 W/m2
02:29 13.1 °C 12.1 °C 1018.8 hPa Calm     94% 0 mm 0 W/m2
02:34 13.1 °C 12.1 °C 1018.8 hPa Calm     94% 0 mm 0 W/m2
02:39 13.1 °C 12.1 °C 1018.8 hPa Calm     94% 0 mm 0 W/m2
02:44 13.1 °C 12.1 °C 1018.5 hPa Calm     94% 0 mm 0 W/m2
02:49 13 °C 12.1 °C 1018.8 hPa Calm     94% 0 mm 0 W/m2
02:54 12.9 °C 12 °C 1018.8 hPa Calm     94% 0 mm 0 W/m2
02:59 12.9 °C 12 °C 1018.8 hPa Calm     94% 0 mm 0 W/m2
03:04 12.8 °C 11.9 °C 1019.2 hPa Calm     94% 0 mm 0 W/m2
03:09 12.8 °C 11.8 °C 1019.2 hPa Calm     94% 0 mm 0 W/m2
03:14 12.7 °C 11.7 °C 1019.2 hPa Calm     94% 0 mm 0 W/m2
03:19 12.6 °C 11.6 °C 1019.2 hPa Calm     94% 0 mm 0 W/m2
03:24 12.5 °C 11.6 °C 1019.2 hPa Calm     94% 0 mm 0 W/m2
03:29 12.4 °C 11.6 °C 1019.2 hPa Calm     94.4% 0 mm 0 W/m2
03:34 12.5 °C 11.7 °C 1019.2 hPa Calm     95% 0 mm 0 W/m2
03:39 12.5 °C 11.7 °C 1019.2 hPa Calm     95% 0 mm 0 W/m2
03:44 12.5 °C 11.7 °C 1019.2 hPa Calm     95% 0 mm 0 W/m2
03:49 12.4 °C 11.7 °C 1019.2 hPa Calm     95% 0 mm 0 W/m2
03:54 12.4 °C 11.7 °C 1019.2 hPa Calm     95% 0 mm 0 W/m2
03:59 12.4 °C 11.6 °C 1019.2 hPa Calm     95% 0 mm 0 W/m2
04:09 12.3 °C 11.6 °C 1018.8 hPa Calm     95% 0 mm 0 W/m2
04:14 12.3 °C 11.6 °C 1018.8 hPa Calm     95% 0 mm 0 W/m2
04:19 12.3 °C 11.6 °C 1018.8 hPa Calm     95% 0 mm 0 W/m2
04:24 12.3 °C 11.5 °C 1018.8 hPa Calm     95% 0 mm 0 W/m2
04:29 12.2 °C 11.4 °C 1018.8 hPa Calm     95% 0 mm 0 W/m2
04:34 12.2 °C 11.4 °C 1018.8 hPa Calm     95% 0 mm 0 W/m2
04:39 12.3 °C 11.5 °C 1018.8 hPa Calm     95% 0 mm 0 W/m2
04:44 12.3 °C 11.6 °C 1018.8 hPa Calm     95% 0 mm 0 W/m2
04:49 12.4 °C 11.7 °C 1019.2 hPa Calm     95% 0 mm 0 W/m2
04:54 12.6 °C 11.9 °C 1019.2 hPa Calm     95.6% 0 mm 0 W/m2
04:59 12.7 °C 12.1 °C 1019.2 hPa Calm     96% 0 mm 0 W/m2
05:04 12.8 °C 12.2 °C 1019.2 hPa Calm     96% 0 mm 0 W/m2
05:09 13 °C 12.4 °C 1019.2 hPa Calm     96% 0 mm 0 W/m2
05:14 13.1 °C 12.4 °C 1019.2 hPa Calm     96% 0 mm 0 W/m2
05:19 13.2 °C 12.6 °C 1019.2 hPa ENE 0.2 km/h 3.2 km/h 96% 0 mm 0 W/m2
05:24 13.2 °C 12.6 °C 1019.2 hPa Calm   3.2 km/h 96% 0 mm 0 W/m2
05:29 13.2 °C 12.6 °C 1019.2 hPa ENE 0.3 km/h 4.8 km/h 96% 0 mm 0 W/m2
05:34 13.2 °C 12.5 °C 1019.2 hPa Calm   4.8 km/h 96% 0 mm 0 W/m2
05:39 13.1 °C 12.5 °C 1019.2 hPa Calm   3.2 km/h 96% 0 mm 0 W/m2
05:44 13.1 °C 12.5 °C 1019.5 hPa Calm   3.2 km/h 96% 0 mm 0 W/m2
05:49 13.1 °C 12.5 °C 1019.9 hPa Calm   3.2 km/h 96% 0 mm 0 W/m2
05:54 13.2 °C 12.6 °C 1019.9 hPa Calm   3.2 km/h 96% 0 mm 0 W/m2
05:59 13.2 °C 12.6 °C 1019.9 hPa Calm   3.2 km/h 96% 0 mm 0 W/m2
06:04 13.2 °C 12.6 °C 1019.9 hPa Calm   3.2 km/h 96% 0 mm 0 W/m2
06:09 13.2 °C 12.6 °C 1019.9 hPa Calm   1.6 km/h 96% 0 mm 0 W/m2
06:14 13.3 °C 12.7 °C 1019.9 hPa Calm   1.6 km/h 96% 0 mm 0 W/m2
06:19 13.3 °C 12.7 °C 1019.9 hPa Calm   1.6 km/h 96% 0 mm 0 W/m2
06:24 13.3 °C 12.7 °C 1019.9 hPa Calm   1.6 km/h 96% 0 mm 0 W/m2
06:29 13.3 °C 12.7 °C 1019.9 hPa Calm   1.6 km/h 96% 0 mm 0 W/m2
06:34 13.3 °C 12.7 °C 1019.9 hPa Calm   1.6 km/h 96% 0 mm 0 W/m2
06:39 13.3 °C 12.7 °C 1019.9 hPa Calm     96% 0 mm 0 W/m2
06:44 13.3 °C 12.7 °C 1020.2 hPa Calm     96% 0 mm 0 W/m2
06:49 13.3 °C 12.7 °C 1020.2 hPa Calm     96% 0 mm 0 W/m2
06:54 13.3 °C 12.7 °C 1020.2 hPa Calm     96% 0 mm 0 W/m2
06:59 13.3 °C 12.7 °C 1020.2 hPa Calm     96% 0 mm 0 W/m2
07:04 13.4 °C 12.8 °C 1020.2 hPa Calm     96% 0 mm 0 W/m2
07:09 13.4 °C 12.8 °C 1020.2 hPa Calm     96% 0 mm 0 W/m2
07:14 13.4 °C 12.8 °C 1019.9 hPa Calm     96% 0 mm 5 W/m2
07:19 13.5 °C 12.8 °C 1019.9 hPa Calm     96% 0 mm 7 W/m2
07:24 13.5 °C 12.9 °C 1020.2 hPa Calm     96% 0 mm 9 W/m2
07:29 13.5 °C 12.9 °C 1020.2 hPa Calm     96% 0 mm 11 W/m2
07:34 13.5 °C 12.9 °C 1020.2 hPa Calm     96% 0 mm 11 W/m2
07:39 13.5 °C 12.9 °C 1020.2 hPa Calm     96% 0 mm 12 W/m2
07:44 13.5 °C 12.9 °C 1020.2 hPa Calm     96% 0 mm 30 W/m2
07:49 13.4 °C 12.8 °C 1020.2 hPa Calm   1.6 km/h 96% 0 mm 33 W/m2
07:54 13.4 °C 12.8 °C 1020.2 hPa Calm   1.6 km/h 96% 0 mm 33 W/m2
07:59 13.4 °C 12.8 °C 1020.2 hPa Calm   1.6 km/h 96% 0 mm 33 W/m2
08:00 13.4 °C 12.8 °C 1020.2 hPa Calm   1.6 km/h 96% 0 mm 28 W/m2
08:09 13.5 °C 12.9 °C 1020.5 hPa Calm     96% 0 mm 53 W/m2
08:14 13.6 °C 12.9 °C 1020.5 hPa Calm     96% 0 mm 54 W/m2
08:19 13.6 °C 12.9 °C 1020.5 hPa Calm     96% 0 mm 56 W/m2
08:24 13.6 °C 12.9 °C 1020.5 hPa Calm     96% 0 mm 53 W/m2
08:29 13.7 °C 13.1 °C 1020.5 hPa Calm     96% 0 mm 62 W/m2
08:34 13.7 °C 13.2 °C 1020.5 hPa Calm     96.5% 0 mm 77 W/m2
08:39 13.8 °C 13.3 °C 1020.5 hPa Calm     97% 0 mm 86 W/m2
08:44 13.9 °C 13.4 °C 1020.5 hPa Calm   1.6 km/h 97% 0 mm 72 W/m2
08:49 13.9 °C 13.4 °C 1020.9 hPa Calm   1.6 km/h 97% 0 mm 77 W/m2
08:54 13.8 °C 13.3 °C 1020.9 hPa Calm   1.6 km/h 96.7% 0 mm 93 W/m2
08:59 13.8 °C 13.2 °C 1020.9 hPa ENE 0.3 km/h 4.8 km/h 96% 0 mm 77 W/m2
09:04 13.8 °C 13.1 °C 1020.9 hPa Calm   4.8 km/h 96% 0 mm 102 W/m2
09:09 13.8 °C 13.2 °C 1020.9 hPa Calm   3.2 km/h 96% 0 mm 100 W/m2
09:14 13.8 °C 13.3 °C 1020.9 hPa Calm   3.2 km/h 96.5% 0 mm 95 W/m2
09:19 13.9 °C 13.3 °C 1020.9 hPa Calm   3.2 km/h 96% 0 mm 107 W/m2
09:24 14.1 °C 13.4 °C 1020.9 hPa Calm   3.2 km/h 96% 0 mm 113 W/m2
09:28 14.2 °C 13.7 °C 1020.5 hPa Calm   3.2 km/h 96.9% 0 mm 102 W/m2
09:30 14.3 °C 13.8 °C 1020.5 hPa Calm   3.2 km/h 97% 0 mm 94 W/m2
10:00 14.7 °C 14.1 °C 1020.2 hPa Calm   6.4 km/h 96% 0 mm 141 W/m2
10:30 15.1 °C 14.4 °C 1020.2 hPa Calm   4.8 km/h 96% 0 mm 135 W/m2
11:00 15.9 °C 14.9 °C 1019.9 hPa Calm   8 km/h 94% 0 mm 202 W/m2
11:30 18.3 °C 15.8 °C 1019.5 hPa Calm   9.7 km/h 85% 0 mm 277 W/m2
12:04 20.4 °C 15.9 °C 1019.2 hPa Calm     75.3% 0 mm 100 W/m2
12:09 20.4 °C 15.8 °C 1019.5 hPa Calm   3.2 km/h 74.9% 0 mm 503 W/m2
12:14 20.4 °C 16.1 °C 1019.5 hPa Calm   3.2 km/h 75.9% 0 mm 589 W/m2
12:19 20.7 °C 16.1 °C 1019.2 hPa Calm   3.2 km/h 75% 0 mm 612 W/m2
12:24 20.9 °C 16.1 °C 1019.2 hPa Calm   3.2 km/h 73.7% 0 mm 619 W/m2
12:29 21.1 °C 16 °C 1019.2 hPa Calm   3.2 km/h 72.7% 0 mm 492 W/m2
12:34 21.2 °C 15.8 °C 1019.2 hPa Calm   3.2 km/h 71.6% 0 mm 302 W/m2
13:00 21.5 °C 16.4 °C 1018.5 hPa Calm   8 km/h 73% 0 mm 131 W/m2
13:30 21.8 °C 16.1 °C 1018.5 hPa Calm   4.8 km/h 70% 0 mm 133 W/m2
14:30 22.4 °C 16.7 °C 1017.5 hPa Calm   8 km/h 70% 0 mm 174 W/m2
15:00 22.8 °C 16.4 °C 1017.2 hPa Calm   6.4 km/h 67% 0 mm 85 W/m2
15:30 23.1 °C 16.7 °C 1016.8 hPa Calm   6.4 km/h 67% 0 mm 95 W/m2
16:04 23 °C 16.6 °C 1016.8 hPa WSW 0.2 km/h 1.6 km/h 67% 0 mm 28 W/m2
16:09 22.9 °C 16.6 °C 1016.8 hPa WSW 0.8 km/h 4.8 km/h 67.3% 0 mm 28 W/m2
16:14 22.9 °C 16.9 °C 1016.8 hPa WSW 0.5 km/h 6.4 km/h 68.8% 0 mm 28 W/m2
16:19 22.9 °C 16.8 °C 1016.8 hPa WSW 0.6 km/h 6.4 km/h 68.5% 0 mm 28 W/m2
16:24 22.9 °C 16.8 °C 1016.8 hPa Calm   6.4 km/h 68.7% 0 mm 28 W/m2
16:29 22.8 °C 16.9 °C 1016.8 hPa WSW 0.2 km/h 6.4 km/h 69% 0 mm 28 W/m2
16:34 22.8 °C 16.8 °C 1016.8 hPa WSW 0.6 km/h 6.4 km/h 69% 0 mm 26 W/m2
16:39 22.7 °C 16.8 °C 1016.8 hPa WSW 0.2 km/h 4.8 km/h 69.2% 0 mm 26 W/m2
16:44 22.7 °C 16.9 °C 1016.8 hPa WSW 0.2 km/h 4.8 km/h 70% 0 mm 26 W/m2
16:49 22.6 °C 16.9 °C 1016.8 hPa WSW 0.2 km/h 4.8 km/h 70% 0 mm 26 W/m2
16:54 22.6 °C 16.8 °C 1016.8 hPa Calm   4.8 km/h 70% 0 mm 30 W/m2
16:59 22.5 °C 16.9 °C 1016.8 hPa Calm   4.8 km/h 70.6% 0 mm 33 W/m2
17:04 22.4 °C 16.9 °C 1016.8 hPa Calm   4.8 km/h 71% 0 mm 35 W/m2
17:09 22.4 °C 17.1 °C 1016.8 hPa Calm     71.5% 0 mm 33 W/m2
17:14 22.4 °C 17.1 °C 1016.5 hPa Calm     72% 0 mm 33 W/m2
17:19 22.3 °C 16.9 °C 1016.5 hPa Calm     71.6% 0 mm 32 W/m2
17:24 22.3 °C 17 °C 1016.5 hPa WSW 0.2 km/h 4.8 km/h 72% 0 mm 28 W/m2
17:29 22.2 °C 17 °C 1016.5 hPa Calm   4.8 km/h 72.5% 0 mm 25 W/m2
17:34 22.2 °C 17.1 °C 1016.5 hPa WSW 0.2 km/h 4.8 km/h 73% 0 mm 23 W/m2
17:39 22.1 °C 17 °C 1016.5 hPa Calm   3.2 km/h 73% 0 mm 21 W/m2
17:44 22 °C 16.9 °C 1016.5 hPa Calm   3.2 km/h 73% 0 mm 18 W/m2
17:49 21.9 °C 17 °C 1016.5 hPa Calm   3.2 km/h 73.7% 0 mm 16 W/m2
17:54 21.8 °C 17 °C 1016.5 hPa Calm   3.2 km/h 74% 0 mm 16 W/m2
17:59 21.7 °C 16.9 °C 1016.5 hPa Calm   3.2 km/h 74% 0 mm 14 W/m2
18:04 21.6 °C 16.8 °C 1016.5 hPa Calm   3.2 km/h 74.4% 0 mm 12 W/m2
18:09 21.4 °C 16.8 °C 1016.5 hPa Calm     75% 0 mm 9 W/m2
18:14 21.3 °C 16.7 °C 1016.5 hPa Calm     75.2% 0 mm 5 W/m2
18:19 21.2 °C 16.8 °C 1016.5 hPa Calm     76% 0 mm 0 W/m2
18:24 20.9 °C 16.8 °C 1016.5 hPa Calm     77% 0 mm 0 W/m2
18:29 20.8 °C 16.6 °C 1016.5 hPa Calm     77% 0 mm 0 W/m2
18:34 20.6 °C 16.4 °C 1016.5 hPa Calm     77% 0 mm 0 W/m2
18:39 20.4 °C 16.3 °C 1016.5 hPa Calm     77% 0 mm 0 W/m2
18:44 20.3 °C 16.2 °C 1016.5 hPa Calm     77.1% 0 mm 0 W/m2
18:49 20.2 °C 16.2 °C 1016.5 hPa Calm     78% 0 mm 0 W/m2
18:54 20 °C 16.1 °C 1016.5 hPa Calm     78% 0 mm 0 W/m2
18:59 19.9 °C 16 °C 1016.5 hPa Calm     78.5% 0 mm 0 W/m2
19:04 19.7 °C 16 °C 1016.8 hPa Calm     79% 0 mm 0 W/m2
19:09 19.6 °C 15.8 °C 1016.8 hPa Calm     79% 0 mm 0 W/m2
19:14 19.4 °C 15.7 °C 1016.8 hPa Calm     79% 0 mm 0 W/m2
19:19 19.2 °C 15.5 °C 1016.8 hPa Calm     79.1% 0 mm 0 W/m2
19:24 19.1 °C 15.6 °C 1016.8 hPa Calm     80% 0 mm 0 W/m2
19:29 18.9 °C 15.4 °C 1016.8 hPa Calm     80% 0 mm 0 W/m2
19:34 18.8 °C 15.3 °C 1016.8 hPa Calm     80% 0 mm 0 W/m2
19:39 18.7 °C 15.1 °C 1016.8 hPa Calm     80% 0 mm 0 W/m2
19:44 18.5 °C 15.2 °C 1016.8 hPa Calm     81% 0 mm 0 W/m2
19:49 18.4 °C 15.1 °C 1016.8 hPa Calm     81% 0 mm 0 W/m2
19:54 18.2 °C 15.1 °C 1016.8 hPa Calm     81.9% 0 mm 0 W/m2
19:59 18.1 °C 15 °C 1016.8 hPa Calm     82% 0 mm 0 W/m2
20:09 17.8 °C 14.9 °C 1016.8 hPa Calm     83% 0 mm 0 W/m2
20:14 17.7 °C 14.8 °C 1016.8 hPa Calm     83% 0 mm 0 W/m2
20:19 17.6 °C 14.6 °C 1016.8 hPa Calm     83% 0 mm 0 W/m2
20:24 17.4 °C 14.5 °C 1016.8 hPa Calm     83% 0 mm 0 W/m2
20:29 17.3 °C 14.6 °C 1016.8 hPa Calm     83.9% 0 mm 0 W/m2
20:34 17.2 °C 14.4 °C 1016.8 hPa Calm     84% 0 mm 0 W/m2
20:39 17.1 °C 14.4 °C 1016.8 hPa Calm     84.2% 0 mm 0 W/m2
20:44 16.9 °C 14.4 °C 1016.8 hPa Calm     85% 0 mm 0 W/m2
20:49 16.8 °C 14.3 °C 1016.8 hPa Calm     85% 0 mm 0 W/m2
20:54 16.8 °C 14.3 °C 1016.8 hPa Calm     85.7% 0 mm 0 W/m2
20:59 16.7 °C 14.3 °C 1016.8 hPa Calm     86% 0 mm 0 W/m2
21:03 16.6 °C 14.2 °C 1017.2 hPa Calm     86% 0 mm 0 W/m2
Hartford County Weather
Compliments of Weather Underground - 4 mb